Terminal Aerodrome Forecast
Issued by NWS

Home | Current Version | Previous Version | Text Only | Print | Product List | Glossary On
Versions: 1 2 3 4 5 6 7 8 9 10 11 12 13
000
FTUS43 KPAH 212300
TAFCGI
TAF
KCGI 212320Z 2200/2224 21010KT P6SM -SHRA SCT030 BKN060
      TEMPO 2200/2201 4SM -TSRA BR BKN030CB
     FM220200 24007KT P6SM SCT035 BKN090
     FM220500 25008KT P6SM BKN035
     FM220800 32008KT P6SM BKN035
     FM221400 01012G20KT P6SM SKC=

USA.gov is the U.S. government's official web portal to all federal, state and local government web resources and services.